sensor_id;sensor_type;location;lat;lon;timestamp;P1;durP1;ratioP1;P2;durP2;ratioP2
18286;SDS011;9269;50.838;12.094;2023-02-03T00:02:19;2.50;;;2.30;;
18286;SDS011;9269;50.838;12.094;2023-02-03T00:04:47;2.53;;;2.07;;
18286;SDS011;9269;50.838;12.094;2023-02-03T00:07:15;2.93;;;1.83;;
18286;SDS011;9269;50.838;12.094;2023-02-03T00:09:44;1.90;;;1.57;;
18286;SDS011;9269;50.838;12.094;2023-02-03T00:12:12;3.40;;;1.80;;
18286;SDS011;9269;50.838;12.094;2023-02-03T00:14:41;2.03;;;1.80;;
18286;SDS011;9269;50.838;12.094;2023-02-03T00:17:10;2.87;;;2.07;;
18286;SDS011;9269;50.838;12.094;2023-02-03T00:19:41;2.60;;;2.40;;
18286;SDS011;9269;50.838;12.094;2023-02-03T00:22:09;5.03;;;3.30;;
18286;SDS011;9269;50.838;12.094;2023-02-03T00:24:38;3.37;;;2.40;;
18286;SDS011;9269;50.838;12.094;2023-02-03T00:27:06;4.20;;;2.37;;
18286;SDS011;9269;50.838;12.094;2023-02-03T00:29:34;2.33;;;2.10;;
18286;SDS011;9269;50.838;12.094;2023-02-03T00:32:03;3.10;;;1.90;;
18286;SDS011;9269;50.838;12.094;2023-02-03T00:34:34;1.70;;;1.60;;
18286;SDS011;9269;50.838;12.094;2023-02-03T00:37:03;1.87;;;1.77;;
18286;SDS011;9269;50.838;12.094;2023-02-03T00:39:31;2.10;;;1.60;;
18286;SDS011;9269;50.838;12.094;2023-02-03T00:41:59;2.67;;;1.70;;
18286;SDS011;9269;50.838;12.094;2023-02-03T00:44:35;3.13;;;1.50;;
18286;SDS011;9269;50.838;12.094;2023-02-03T00:47:03;1.93;;;1.50;;
18286;SDS011;9269;50.838;12.094;2023-02-03T00:49:32;1.63;;;1.50;;
18286;SDS011;9269;50.838;12.094;2023-02-03T00:52:01;1.47;;;1.37;;
18286;SDS011;9269;50.838;12.094;2023-02-03T00:54:30;1.40;;;1.30;;
18286;SDS011;9269;50.838;12.094;2023-02-03T00:56:59;1.23;;;1.13;;
18286;SDS011;9269;50.838;12.094;2023-02-03T00:59:28;1.40;;;1.30;;
18286;SDS011;9269;50.838;12.094;2023-02-03T01:01:56;1.33;;;1.23;;
18286;SDS011;9269;50.838;12.094;2023-02-03T01:04:24;1.07;;;1.03;;
18286;SDS011;9269;50.838;12.094;2023-02-03T01:06:53;1.03;;;1.00;;
18286;SDS011;9269;50.838;12.094;2023-02-03T01:09:24;1.20;;;1.20;;
18286;SDS011;9269;50.838;12.094;2023-02-03T01:11:53;1.87;;;1.13;;
18286;SDS011;9269;50.838;12.094;2023-02-03T01:14:21;1.67;;;1.37;;
18286;SDS011;9269;50.838;12.094;2023-02-03T01:16:50;0.93;;;0.93;;
18286;SDS011;9269;50.838;12.094;2023-02-03T01:19:18;1.17;;;1.10;;
18286;SDS011;9269;50.838;12.094;2023-02-03T01:21:47;1.47;;;1.20;;
18286;SDS011;9269;50.838;12.094;2023-02-03T01:24:15;1.10;;;1.00;;
18286;SDS011;9269;50.838;12.094;2023-02-03T01:26:45;1.00;;;1.00;;
18286;SDS011;9269;50.838;12.094;2023-02-03T01:29:13;1.17;;;1.17;;
18286;SDS011;9269;50.838;12.094;2023-02-03T01:31:41;1.10;;;0.87;;
18286;SDS011;9269;50.838;12.094;2023-02-03T01:34:11;0.93;;;0.83;;
18286;SDS011;9269;50.838;12.094;2023-02-03T01:36:42;1.20;;;1.20;;
18286;SDS011;9269;50.838;12.094;2023-02-03T01:39:11;1.13;;;0.97;;
18286;SDS011;9269;50.838;12.094;2023-02-03T01:41:40;1.00;;;0.87;;
18286;SDS011;9269;50.838;12.094;2023-02-03T01:47:07;0.80;;;0.80;;
18286;SDS011;9269;50.838;12.094;2023-02-03T01:49:58;0.80;;;0.80;;
18286;SDS011;9269;50.838;12.094;2023-02-03T01:52:29;0.90;;;0.90;;
18286;SDS011;9269;50.838;12.094;2023-02-03T01:54:59;0.90;;;0.90;;
18286;SDS011;9269;50.838;12.094;2023-02-03T01:57:32;0.83;;;0.83;;
18286;SDS011;9269;50.838;12.094;2023-02-03T02:00:05;0.87;;;0.87;;
18286;SDS011;9269;50.838;12.094;2023-02-03T02:02:43;0.90;;;0.90;;
18286;SDS011;9269;50.838;12.094;2023-02-03T02:05:15;1.20;;;1.00;;
18286;SDS011;9269;50.838;12.094;2023-02-03T02:07:47;0.70;;;0.70;;
18286;SDS011;9269;50.838;12.094;2023-02-03T02:10:16;0.80;;;0.80;;
18286;SDS011;9269;50.838;12.094;2023-02-03T02:12:45;1.43;;;0.87;;
18286;SDS011;9269;50.838;12.094;2023-02-03T02:15:15;0.77;;;0.70;;
18286;SDS011;9269;50.838;12.094;2023-02-03T02:17:51;0.97;;;0.93;;
18286;SDS011;9269;50.838;12.094;2023-02-03T02:20:36;1.03;;;0.80;;
18286;SDS011;9269;50.838;12.094;2023-02-03T02:26:37;0.80;;;0.80;;
18286;SDS011;9269;50.838;12.094;2023-02-03T02:29:33;1.30;;;1.00;;
18286;SDS011;9269;50.838;12.094;2023-02-03T02:32:28;0.93;;;0.93;;
18286;SDS011;9269;50.838;12.094;2023-02-03T02:35:01;1.20;;;1.10;;
18286;SDS011;9269;50.838;12.094;2023-02-03T02:37:36;1.57;;;1.20;;
18286;SDS011;9269;50.838;12.094;2023-02-03T02:40:14;1.33;;;1.23;;
18286;SDS011;9269;50.838;12.094;2023-02-03T02:42:55;2.90;;;1.40;;
18286;SDS011;9269;50.838;12.094;2023-02-03T02:45:29;1.03;;;1.00;;
18286;SDS011;9269;50.838;12.094;2023-02-03T02:48:09;1.20;;;1.10;;
18286;SDS011;9269;50.838;12.094;2023-02-03T02:50:43;1.27;;;1.17;;
18286;SDS011;9269;50.838;12.094;2023-02-03T02:53:13;1.00;;;1.00;;
18286;SDS011;9269;50.838;12.094;2023-02-03T02:55:44;1.00;;;1.00;;
18286;SDS011;9269;50.838;12.094;2023-02-03T02:58:14;1.37;;;1.27;;
18286;SDS011;9269;50.838;12.094;2023-02-03T03:00:45;1.27;;;1.20;;
18286;SDS011;9269;50.838;12.094;2023-02-03T03:03:16;1.63;;;1.50;;
18286;SDS011;9269;50.838;12.094;2023-02-03T03:05:47;1.27;;;1.17;;
18286;SDS011;9269;50.838;12.094;2023-02-03T03:08:21;1.60;;;1.50;;
18286;SDS011;9269;50.838;12.094;2023-02-03T03:10:54;1.97;;;1.77;;
18286;SDS011;9269;50.838;12.094;2023-02-03T03:13:24;1.47;;;1.37;;
18286;SDS011;9269;50.838;12.094;2023-02-03T03:15:57;1.60;;;1.50;;
18286;SDS011;9269;50.838;12.094;2023-02-03T03:18:29;1.40;;;1.30;;
18286;SDS011;9269;50.838;12.094;2023-02-03T03:21:02;1.43;;;1.33;;
18286;SDS011;9269;50.838;12.094;2023-02-03T03:23:33;2.23;;;1.67;;
18286;SDS011;9269;50.838;12.094;2023-02-03T03:26:07;2.10;;;1.90;;
18286;SDS011;9269;50.838;12.094;2023-02-03T03:28:41;1.50;;;1.40;;
18286;SDS011;9269;50.838;12.094;2023-02-03T03:31:15;2.00;;;1.77;;
18286;SDS011;9269;50.838;12.094;2023-02-03T03:33:46;1.90;;;1.70;;
18286;SDS011;9269;50.838;12.094;2023-02-03T03:36:19;1.80;;;1.70;;
18286;SDS011;9269;50.838;12.094;2023-02-03T03:38:54;2.13;;;1.93;;
18286;SDS011;9269;50.838;12.094;2023-02-03T03:41:30;2.73;;;2.53;;
18286;SDS011;9269;50.838;12.094;2023-02-03T03:44:05;2.83;;;2.63;;
18286;SDS011;9269;50.838;12.094;2023-02-03T03:46:40;3.17;;;2.87;;
18286;SDS011;9269;50.838;12.094;2023-02-03T03:49:13;3.33;;;2.93;;
18286;SDS011;9269;50.838;12.094;2023-02-03T03:51:45;3.03;;;2.73;;
18286;SDS011;9269;50.838;12.094;2023-02-03T03:54:16;2.90;;;2.70;;
18286;SDS011;9269;50.838;12.094;2023-02-03T03:56:49;3.03;;;2.73;;
18286;SDS011;9269;50.838;12.094;2023-02-03T03:59:24;4.53;;;3.40;;
18286;SDS011;9269;50.838;12.094;2023-02-03T04:01:56;4.67;;;3.07;;
18286;SDS011;9269;50.838;12.094;2023-02-03T04:04:33;3.70;;;3.40;;
18286;SDS011;9269;50.838;12.094;2023-02-03T04:07:03;3.30;;;3.00;;
18286;SDS011;9269;50.838;12.094;2023-02-03T04:09:32;4.27;;;3.27;;
18286;SDS011;9269;50.838;12.094;2023-02-03T04:12:02;4.83;;;3.67;;
18286;SDS011;9269;50.838;12.094;2023-02-03T04:14:33;3.57;;;3.23;;
18286;SDS011;9269;50.838;12.094;2023-02-03T04:17:04;5.10;;;3.73;;
18286;SDS011;9269;50.838;12.094;2023-02-03T04:19:34;4.70;;;4.13;;
18286;SDS011;9269;50.838;12.094;2023-02-03T04:22:02;4.73;;;3.63;;
18286;SDS011;9269;50.838;12.094;2023-02-03T04:24:31;5.10;;;4.57;;
18286;SDS011;9269;50.838;12.094;2023-02-03T04:26:59;4.50;;;4.10;;
18286;SDS011;9269;50.838;12.094;2023-02-03T04:29:31;4.27;;;3.87;;
18286;SDS011;9269;50.838;12.094;2023-02-03T04:31:59;4.90;;;4.40;;
18286;SDS011;9269;50.838;12.094;2023-02-03T04:34:29;5.67;;;4.67;;
18286;SDS011;9269;50.838;12.094;2023-02-03T04:36:59;5.17;;;4.43;;
18286;SDS011;9269;50.838;12.094;2023-02-03T04:39:28;5.73;;;4.80;;
18286;SDS011;9269;50.838;12.094;2023-02-03T04:41:56;6.27;;;4.70;;
18286;SDS011;9269;50.838;12.094;2023-02-03T04:44:25;4.80;;;4.30;;
18286;SDS011;9269;50.838;12.094;2023-02-03T04:46:53;4.90;;;4.37;;
18286;SDS011;9269;50.838;12.094;2023-02-03T04:49:21;5.70;;;4.70;;
18286;SDS011;9269;50.838;12.094;2023-02-03T04:51:50;4.80;;;4.40;;
18286;SDS011;9269;50.838;12.094;2023-02-03T04:54:20;5.00;;;4.50;;
18286;SDS011;9269;50.838;12.094;2023-02-03T04:56:48;4.77;;;4.10;;
18286;SDS011;9269;50.838;12.094;2023-02-03T04:59:17;5.40;;;4.60;;
18286;SDS011;9269;50.838;12.094;2023-02-03T05:01:45;4.90;;;4.37;;
18286;SDS011;9269;50.838;12.094;2023-02-03T05:04:14;4.90;;;4.50;;
18286;SDS011;9269;50.838;12.094;2023-02-03T05:06:43;4.87;;;4.17;;
18286;SDS011;9269;50.838;12.094;2023-02-03T05:09:12;4.83;;;4.43;;
18286;SDS011;9269;50.838;12.094;2023-02-03T05:11:42;4.90;;;4.20;;
18286;SDS011;9269;50.838;12.094;2023-02-03T05:14:10;3.97;;;3.60;;
18286;SDS011;9269;50.838;12.094;2023-02-03T05:16:38;4.13;;;3.70;;
18286;SDS011;9269;50.838;12.094;2023-02-03T05:19:07;4.57;;;4.17;;
18286;SDS011;9269;50.838;12.094;2023-02-03T05:21:35;4.20;;;3.57;;
18286;SDS011;9269;50.838;12.094;2023-02-03T05:24:04;4.57;;;4.17;;
18286;SDS011;9269;50.838;12.094;2023-02-03T05:26:34;5.20;;;3.93;;
18286;SDS011;9269;50.838;12.094;2023-02-03T05:29:04;5.17;;;3.43;;
18286;SDS011;9269;50.838;12.094;2023-02-03T05:31:33;3.97;;;3.33;;
18286;SDS011;9269;50.838;12.094;2023-02-03T05:34:02;3.87;;;3.50;;
18286;SDS011;9269;50.838;12.094;2023-02-03T05:36:30;5.17;;;4.00;;
18286;SDS011;9269;50.838;12.094;2023-02-03T05:38:59;4.17;;;3.23;;
18286;SDS011;9269;50.838;12.094;2023-02-03T05:41:28;3.03;;;2.80;;
18286;SDS011;9269;50.838;12.094;2023-02-03T05:44:15;2.70;;;2.50;;
18286;SDS011;9269;50.838;12.094;2023-02-03T05:46:44;2.73;;;2.53;;
18286;SDS011;9269;50.838;12.094;2023-02-03T05:49:12;2.33;;;2.20;;
18286;SDS011;9269;50.838;12.094;2023-02-03T05:51:46;2.53;;;2.33;;
18286;SDS011;9269;50.838;12.094;2023-02-03T05:54:14;2.27;;;2.07;;
18286;SDS011;9269;50.838;12.094;2023-02-03T05:56:43;2.37;;;2.17;;
18286;SDS011;9269;50.838;12.094;2023-02-03T05:59:13;2.73;;;2.10;;
18286;SDS011;9269;50.838;12.094;2023-02-03T06:01:43;2.40;;;2.00;;
18286;SDS011;9269;50.838;12.094;2023-02-03T06:04:11;2.30;;;2.10;;
18286;SDS011;9269;50.838;12.094;2023-02-03T06:06:40;2.40;;;1.83;;
18286;SDS011;9269;50.838;12.094;2023-02-03T06:09:08;1.60;;;1.50;;
18286;SDS011;9269;50.838;12.094;2023-02-03T06:11:37;2.10;;;1.97;;
18286;SDS011;9269;50.838;12.094;2023-02-03T06:14:08;2.33;;;1.80;;
18286;SDS011;9269;50.838;12.094;2023-02-03T06:16:37;2.10;;;1.90;;
18286;SDS011;9269;50.838;12.094;2023-02-03T06:19:07;2.13;;;1.93;;
18286;SDS011;9269;50.838;12.094;2023-02-03T06:21:35;2.27;;;2.07;;
18286;SDS011;9269;50.838;12.094;2023-02-03T06:24:04;2.60;;;1.90;;
18286;SDS011;9269;50.838;12.094;2023-02-03T06:26:33;2.30;;;2.10;;
18286;SDS011;9269;50.838;12.094;2023-02-03T06:29:02;3.73;;;2.40;;
18286;SDS011;9269;50.838;12.094;2023-02-03T06:31:30;2.20;;;2.00;;
18286;SDS011;9269;50.838;12.094;2023-02-03T06:33:59;2.97;;;2.00;;
18286;SDS011;9269;50.838;12.094;2023-02-03T06:36:31;2.27;;;2.07;;
18286;SDS011;9269;50.838;12.094;2023-02-03T06:38:59;2.60;;;2.40;;
18286;SDS011;9269;50.838;12.094;2023-02-03T06:41:28;3.30;;;3.10;;
18286;SDS011;9269;50.838;12.094;2023-02-03T06:43:58;3.70;;;3.40;;
18286;SDS011;9269;50.838;12.094;2023-02-03T06:46:27;3.67;;;3.37;;
18286;SDS011;9269;50.838;12.094;2023-02-03T06:48:56;4.30;;;3.20;;
18286;SDS011;9269;50.838;12.094;2023-02-03T06:51:25;3.87;;;3.40;;
18286;SDS011;9269;50.838;12.094;2023-02-03T06:53:55;3.33;;;3.03;;
18286;SDS011;9269;50.838;12.094;2023-02-03T06:56:24;3.23;;;2.93;;
18286;SDS011;9269;50.838;12.094;2023-02-03T06:58:53;2.60;;;2.40;;
18286;SDS011;9269;50.838;12.094;2023-02-03T07:01:21;2.90;;;2.60;;
18286;SDS011;9269;50.838;12.094;2023-02-03T07:03:51;2.70;;;2.50;;
18286;SDS011;9269;50.838;12.094;2023-02-03T07:06:23;3.93;;;3.50;;
18286;SDS011;9269;50.838;12.094;2023-02-03T07:08:56;4.20;;;3.17;;
18286;SDS011;9269;50.838;12.094;2023-02-03T07:11:27;5.27;;;4.50;;
18286;SDS011;9269;50.838;12.094;2023-02-03T07:13:55;4.00;;;3.60;;
18286;SDS011;9269;50.838;12.094;2023-02-03T07:16:24;5.40;;;5.00;;
18286;SDS011;9269;50.838;12.094;2023-02-03T07:18:53;3.80;;;3.50;;
18286;SDS011;9269;50.838;12.094;2023-02-03T07:21:22;3.67;;;3.30;;
18286;SDS011;9269;50.838;12.094;2023-02-03T07:23:51;2.97;;;2.77;;
18286;SDS011;9269;50.838;12.094;2023-02-03T07:26:21;2.90;;;2.70;;
18286;SDS011;9269;50.838;12.094;2023-02-03T07:28:51;3.00;;;2.67;;
18286;SDS011;9269;50.838;12.094;2023-02-03T07:31:21;4.20;;;2.50;;
18286;SDS011;9269;50.838;12.094;2023-02-03T07:33:50;3.07;;;2.60;;
18286;SDS011;9269;50.838;12.094;2023-02-03T07:36:21;2.40;;;2.10;;
18286;SDS011;9269;50.838;12.094;2023-02-03T07:38:49;2.90;;;2.57;;
18286;SDS011;9269;50.838;12.094;2023-02-03T07:41:19;3.47;;;2.57;;
18286;SDS011;9269;50.838;12.094;2023-02-03T07:43:51;3.20;;;2.90;;
18286;SDS011;9269;50.838;12.094;2023-02-03T07:46:20;3.63;;;3.10;;
18286;SDS011;9269;50.838;12.094;2023-02-03T07:48:48;3.37;;;2.27;;
18286;SDS011;9269;50.838;12.094;2023-02-03T07:51:17;3.77;;;2.70;;
18286;SDS011;9269;50.838;12.094;2023-02-03T07:53:46;3.43;;;2.70;;
18286;SDS011;9269;50.838;12.094;2023-02-03T07:56:15;3.40;;;3.10;;
18286;SDS011;9269;50.838;12.094;2023-02-03T07:58:45;3.10;;;2.50;;
18286;SDS011;9269;50.838;12.094;2023-02-03T08:01:15;4.30;;;3.10;;
18286;SDS011;9269;50.838;12.094;2023-02-03T08:03:44;4.17;;;3.10;;
18286;SDS011;9269;50.838;12.094;2023-02-03T08:06:12;3.70;;;2.90;;
18286;SDS011;9269;50.838;12.094;2023-02-03T08:08:46;3.87;;;2.73;;
18286;SDS011;9269;50.838;12.094;2023-02-03T08:11:15;6.93;;;5.33;;
18286;SDS011;9269;50.838;12.094;2023-02-03T08:13:45;5.83;;;5.00;;
18286;SDS011;9269;50.838;12.094;2023-02-03T08:16:14;6.57;;;4.97;;
18286;SDS011;9269;50.838;12.094;2023-02-03T08:18:43;3.90;;;3.60;;
18286;SDS011;9269;50.838;12.094;2023-02-03T08:21:11;5.40;;;4.57;;
18286;SDS011;9269;50.838;12.094;2023-02-03T08:23:40;5.07;;;4.57;;
18286;SDS011;9269;50.838;12.094;2023-02-03T08:26:08;6.27;;;4.17;;
18286;SDS011;9269;50.838;12.094;2023-02-03T08:28:37;11.30;;;6.60;;
18286;SDS011;9269;50.838;12.094;2023-02-03T08:31:09;8.20;;;5.33;;
18286;SDS011;9269;50.838;12.094;2023-02-03T08:33:38;7.93;;;5.63;;
18286;SDS011;9269;50.838;12.094;2023-02-03T08:36:07;5.30;;;3.77;;
18286;SDS011;9269;50.838;12.094;2023-02-03T08:38:38;4.60;;;3.67;;
18286;SDS011;9269;50.838;12.094;2023-02-03T08:41:08;5.30;;;3.77;;
18286;SDS011;9269;50.838;12.094;2023-02-03T08:43:37;4.13;;;3.40;;
18286;SDS011;9269;50.838;12.094;2023-02-03T08:46:07;3.80;;;2.90;;
18286;SDS011;9269;50.838;12.094;2023-02-03T08:48:38;4.47;;;3.00;;
18286;SDS011;9269;50.838;12.094;2023-02-03T08:51:10;4.83;;;3.03;;
18286;SDS011;9269;50.838;12.094;2023-02-03T08:53:40;4.83;;;3.07;;
18286;SDS011;9269;50.838;12.094;2023-02-03T08:56:10;3.17;;;2.70;;
18286;SDS011;9269;50.838;12.094;2023-02-03T08:58:39;3.70;;;3.00;;
18286;SDS011;9269;50.838;12.094;2023-02-03T09:01:10;4.00;;;3.43;;
18286;SDS011;9269;50.838;12.094;2023-02-03T09:03:41;4.10;;;3.00;;
18286;SDS011;9269;50.838;12.094;2023-02-03T09:06:10;4.93;;;3.97;;
18286;SDS011;9269;50.838;12.094;2023-02-03T09:08:42;4.67;;;4.07;;
18286;SDS011;9269;50.838;12.094;2023-02-03T09:11:12;5.53;;;3.90;;
18286;SDS011;9269;50.838;12.094;2023-02-03T09:13:43;8.83;;;5.17;;
18286;SDS011;9269;50.838;12.094;2023-02-03T09:16:14;5.30;;;3.50;;
18286;SDS011;9269;50.838;12.094;2023-02-03T09:18:44;3.10;;;2.80;;
18286;SDS011;9269;50.838;12.094;2023-02-03T09:21:14;2.90;;;2.67;;
18286;SDS011;9269;50.838;12.094;2023-02-03T09:24:00;3.60;;;2.77;;
18286;SDS011;9269;50.838;12.094;2023-02-03T09:26:29;3.93;;;3.00;;
18286;SDS011;9269;50.838;12.094;2023-02-03T09:28:58;6.00;;;2.70;;
18286;SDS011;9269;50.838;12.094;2023-02-03T09:31:28;5.10;;;2.90;;
18286;SDS011;9269;50.838;12.094;2023-02-03T09:33:57;3.13;;;2.63;;
18286;SDS011;9269;50.838;12.094;2023-02-03T09:36:26;3.50;;;2.87;;
18286;SDS011;9269;50.838;12.094;2023-02-03T09:38:55;3.57;;;2.53;;
18286;SDS011;9269;50.838;12.094;2023-02-03T09:41:27;4.43;;;2.70;;
18286;SDS011;9269;50.838;12.094;2023-02-03T09:44:11;2.60;;;2.40;;
18286;SDS011;9269;50.838;12.094;2023-02-03T09:46:46;1.93;;;1.80;;
18286;SDS011;9269;50.838;12.094;2023-02-03T09:49:21;3.33;;;2.23;;
18286;SDS011;9269;50.838;12.094;2023-02-03T09:51:54;3.00;;;2.67;;
18286;SDS011;9269;50.838;12.094;2023-02-03T09:54:30;2.27;;;2.13;;
18286;SDS011;9269;50.838;12.094;2023-02-03T09:57:12;2.90;;;2.43;;
18286;SDS011;9269;50.838;12.094;2023-02-03T09:59:44;2.40;;;2.20;;
18286;SDS011;9269;50.838;12.094;2023-02-03T10:02:24;2.40;;;2.20;;
18286;SDS011;9269;50.838;12.094;2023-02-03T10:05:13;1.80;;;1.70;;
18286;SDS011;9269;50.838;12.094;2023-02-03T10:07:50;3.47;;;2.70;;
18286;SDS011;9269;50.838;12.094;2023-02-03T10:10:28;3.40;;;2.27;;
18286;SDS011;9269;50.838;12.094;2023-02-03T10:13:09;2.20;;;2.00;;
18286;SDS011;9269;50.838;12.094;2023-02-03T10:18:57;2.30;;;2.10;;
18286;SDS011;9269;50.838;12.094;2023-02-03T10:21:32;2.27;;;2.07;;
18286;SDS011;9269;50.838;12.094;2023-02-03T10:24:04;1.47;;;1.37;;
18286;SDS011;9269;50.838;12.094;2023-02-03T10:26:37;4.20;;;3.80;;
18286;SDS011;9269;50.838;12.094;2023-02-03T10:29:12;2.43;;;2.23;;
18286;SDS011;9269;50.838;12.094;2023-02-03T10:31:46;4.10;;;2.50;;
18286;SDS011;9269;50.838;12.094;2023-02-03T10:34:16;2.60;;;1.80;;
18286;SDS011;9269;50.838;12.094;2023-02-03T10:36:52;3.70;;;2.40;;
18286;SDS011;9269;50.838;12.094;2023-02-03T10:39:25;2.90;;;2.23;;
18286;SDS011;9269;50.838;12.094;2023-02-03T10:41:57;1.80;;;1.70;;
18286;SDS011;9269;50.838;12.094;2023-02-03T10:44:30;3.53;;;2.30;;
18286;SDS011;9269;50.838;12.094;2023-02-03T10:47:08;2.33;;;2.00;;
18286;SDS011;9269;50.838;12.094;2023-02-03T10:49:53;2.97;;;2.03;;
18286;SDS011;9269;50.838;12.094;2023-02-03T10:52:26;1.93;;;1.63;;
18286;SDS011;9269;50.838;12.094;2023-02-03T10:54:57;2.37;;;2.23;;
18286;SDS011;9269;50.838;12.094;2023-02-03T10:57:27;5.03;;;2.70;;
18286;SDS011;9269;50.838;12.094;2023-02-03T11:00:04;3.13;;;2.00;;
18286;SDS011;9269;50.838;12.094;2023-02-03T11:02:35;3.20;;;1.67;;
18286;SDS011;9269;50.838;12.094;2023-02-03T11:05:08;1.93;;;1.83;;
18286;SDS011;9269;50.838;12.094;2023-02-03T11:07:45;1.60;;;1.30;;
18286;SDS011;9269;50.838;12.094;2023-02-03T11:10:33;2.90;;;2.50;;
18286;SDS011;9269;50.838;12.094;2023-02-03T11:13:10;5.13;;;2.97;;
18286;SDS011;9269;50.838;12.094;2023-02-03T11:18:39;2.00;;;1.80;;
18286;SDS011;9269;50.838;12.094;2023-02-03T11:21:13;1.23;;;1.13;;
18286;SDS011;9269;50.838;12.094;2023-02-03T11:23:45;1.77;;;1.27;;
18286;SDS011;9269;50.838;12.094;2023-02-03T11:26:18;2.33;;;1.40;;
18286;SDS011;9269;50.838;12.094;2023-02-03T11:28:49;1.03;;;1.00;;
18286;SDS011;9269;50.838;12.094;2023-02-03T11:31:21;1.23;;;1.20;;
18286;SDS011;9269;50.838;12.094;2023-02-03T11:33:56;1.37;;;1.27;;
18286;SDS011;9269;50.838;12.094;2023-02-03T11:36:29;1.40;;;1.30;;
18286;SDS011;9269;50.838;12.094;2023-02-03T11:39:07;1.40;;;1.30;;
18286;SDS011;9269;50.838;12.094;2023-02-03T11:41:37;1.40;;;1.30;;
18286;SDS011;9269;50.838;12.094;2023-02-03T11:44:10;2.00;;;1.50;;
18286;SDS011;9269;50.838;12.094;2023-02-03T11:46:43;1.73;;;1.40;;
18286;SDS011;9269;50.838;12.094;2023-02-03T11:49:28;1.30;;;1.20;;
18286;SDS011;9269;50.838;12.094;2023-02-03T11:52:13;1.43;;;1.20;;
18286;SDS011;9269;50.838;12.094;2023-02-03T11:54:56;1.03;;;1.03;;
18286;SDS011;9269;50.838;12.094;2023-02-03T11:57:37;1.33;;;1.23;;
18286;SDS011;9269;50.838;12.094;2023-02-03T12:00:15;1.83;;;1.73;;
18286;SDS011;9269;50.838;12.094;2023-02-03T12:03:00;1.40;;;1.30;;
18286;SDS011;9269;50.838;12.094;2023-02-03T12:05:43;1.17;;;1.10;;
18286;SDS011;9269;50.838;12.094;2023-02-03T12:08:41;1.03;;;1.03;;
18286;SDS011;9269;50.838;12.094;2023-02-03T12:11:26;1.87;;;1.67;;
18286;SDS011;9269;50.838;12.094;2023-02-03T12:14:22;1.60;;;1.43;;
18286;SDS011;9269;50.838;12.094;2023-02-03T12:17:14;1.60;;;1.50;;
18286;SDS011;9269;50.838;12.094;2023-02-03T12:20:02;1.30;;;1.20;;
18286;SDS011;9269;50.838;12.094;2023-02-03T12:22:41;1.10;;;1.10;;
18286;SDS011;9269;50.838;12.094;2023-02-03T12:25:24;2.00;;;1.50;;
18286;SDS011;9269;50.838;12.094;2023-02-03T12:28:03;1.50;;;1.40;;
18286;SDS011;9269;50.838;12.094;2023-02-03T12:30:59;1.70;;;1.10;;
18286;SDS011;9269;50.838;12.094;2023-02-03T12:33:32;1.30;;;1.20;;
18286;SDS011;9269;50.838;12.094;2023-02-03T12:36:10;0.93;;;0.93;;
18286;SDS011;9269;50.838;12.094;2023-02-03T12:38:43;1.40;;;1.30;;
18286;SDS011;9269;50.838;12.094;2023-02-03T12:41:19;1.10;;;1.10;;
18286;SDS011;9269;50.838;12.094;2023-02-03T12:43:51;0.97;;;0.97;;
18286;SDS011;9269;50.838;12.094;2023-02-03T12:46:26;1.60;;;1.50;;
18286;SDS011;9269;50.838;12.094;2023-02-03T12:48:59;10.70;;;5.77;;
18286;SDS011;9269;50.838;12.094;2023-02-03T12:51:34;38.73;;;19.33;;
18286;SDS011;9269;50.838;12.094;2023-02-03T12:54:08;15.27;;;8.17;;
18286;SDS011;9269;50.838;12.094;2023-02-03T12:56:50;24.80;;;12.57;;
18286;SDS011;9269;50.838;12.094;2023-02-03T12:59:22;6.90;;;5.30;;
18286;SDS011;9269;50.838;12.094;2023-02-03T13:01:58;13.63;;;7.03;;
18286;SDS011;9269;50.838;12.094;2023-02-03T13:04:31;2.27;;;2.07;;
18286;SDS011;9269;50.838;12.094;2023-02-03T13:07:06;2.57;;;2.37;;
18286;SDS011;9269;50.838;12.094;2023-02-03T13:09:43;2.97;;;2.30;;
18286;SDS011;9269;50.838;12.094;2023-02-03T13:12:24;2.33;;;2.13;;
18286;SDS011;9269;50.838;12.094;2023-02-03T13:14:58;3.13;;;1.67;;
18286;SDS011;9269;50.838;12.094;2023-02-03T13:17:36;2.10;;;1.57;;
18286;SDS011;9269;50.838;12.094;2023-02-03T13:20:12;2.67;;;2.20;;
18286;SDS011;9269;50.838;12.094;2023-02-03T13:22:45;1.33;;;1.23;;
18286;SDS011;9269;50.838;12.094;2023-02-03T13:25:16;1.60;;;1.50;;
18286;SDS011;9269;50.838;12.094;2023-02-03T13:27:53;1.53;;;1.43;;
18286;SDS011;9269;50.838;12.094;2023-02-03T13:30:39;3.00;;;1.90;;
18286;SDS011;9269;50.838;12.094;2023-02-03T13:39:32;3.60;;;2.20;;
18286;SDS011;9269;50.838;12.094;2023-02-03T13:42:11;1.60;;;1.47;;
18286;SDS011;9269;50.838;12.094;2023-02-03T13:44:49;1.67;;;1.57;;
18286;SDS011;9269;50.838;12.094;2023-02-03T13:47:21;1.77;;;1.67;;
18286;SDS011;9269;50.838;12.094;2023-02-03T13:49:53;1.37;;;1.27;;
18286;SDS011;9269;50.838;12.094;2023-02-03T13:52:28;2.53;;;1.50;;
18286;SDS011;9269;50.838;12.094;2023-02-03T13:55:02;1.40;;;1.30;;
18286;SDS011;9269;50.838;12.094;2023-02-03T13:57:33;2.97;;;1.53;;
18286;SDS011;9269;50.838;12.094;2023-02-03T14:00:05;1.63;;;1.40;;
18286;SDS011;9269;50.838;12.094;2023-02-03T14:02:56;2.53;;;1.30;;
18286;SDS011;9269;50.838;12.094;2023-02-03T14:05:37;3.97;;;1.60;;
18286;SDS011;9269;50.838;12.094;2023-02-03T14:20:42;5.40;;;1.83;;
18286;SDS011;9269;50.838;12.094;2023-02-03T14:23:34;7.97;;;2.20;;
18286;SDS011;9269;50.838;12.094;2023-02-03T14:26:14;5.20;;;1.67;;
18286;SDS011;9269;50.838;12.094;2023-02-03T14:28:47;5.90;;;2.20;;
18286;SDS011;9269;50.838;12.094;2023-02-03T14:31:19;7.50;;;2.07;;
18286;SDS011;9269;50.838;12.094;2023-02-03T14:33:53;4.80;;;1.60;;
18286;SDS011;9269;50.838;12.094;2023-02-03T14:36:40;7.77;;;2.10;;
18286;SDS011;9269;50.838;12.094;2023-02-03T14:39:32;8.37;;;2.13;;
18286;SDS011;9269;50.838;12.094;2023-02-03T14:42:30;4.23;;;1.80;;
18286;SDS011;9269;50.838;12.094;2023-02-03T14:48:49;8.00;;;2.10;;
18286;SDS011;9269;50.838;12.094;2023-02-03T14:51:30;6.20;;;2.57;;
18286;SDS011;9269;50.838;12.094;2023-02-03T14:54:14;9.17;;;3.57;;
18286;SDS011;9269;50.838;12.094;2023-02-03T14:56:52;10.00;;;3.37;;
18286;SDS011;9269;50.838;12.094;2023-02-03T14:59:43;5.27;;;1.73;;
18286;SDS011;9269;50.838;12.094;2023-02-03T15:02:15;10.60;;;2.63;;
18286;SDS011;9269;50.838;12.094;2023-02-03T15:04:46;8.93;;;3.00;;
18286;SDS011;9269;50.838;12.094;2023-02-03T15:07:33;9.70;;;2.40;;
18286;SDS011;9269;50.838;12.094;2023-02-03T15:10:08;6.87;;;2.30;;
18286;SDS011;9269;50.838;12.094;2023-02-03T15:12:45;8.77;;;2.60;;
18286;SDS011;9269;50.838;12.094;2023-02-03T15:15:18;6.87;;;2.90;;
18286;SDS011;9269;50.838;12.094;2023-02-03T15:17:49;4.57;;;2.00;;
18286;SDS011;9269;50.838;12.094;2023-02-03T15:20:31;6.33;;;2.30;;
18286;SDS011;9269;50.838;12.094;2023-02-03T15:23:01;8.97;;;2.63;;
18286;SDS011;9269;50.838;12.094;2023-02-03T15:25:45;10.77;;;2.70;;
18286;SDS011;9269;50.838;12.094;2023-02-03T15:28:20;9.10;;;2.50;;
18286;SDS011;9269;50.838;12.094;2023-02-03T15:30:51;7.87;;;2.37;;
18286;SDS011;9269;50.838;12.094;2023-02-03T15:33:26;9.67;;;2.43;;
18286;SDS011;9269;50.838;12.094;2023-02-03T15:35:58;10.47;;;2.90;;
18286;SDS011;9269;50.838;12.094;2023-02-03T15:38:34;9.80;;;3.20;;
18286;SDS011;9269;50.838;12.094;2023-02-03T15:41:10;10.17;;;2.87;;
18286;SDS011;9269;50.838;12.094;2023-02-03T15:43:46;10.13;;;3.03;;
18286;SDS011;9269;50.838;12.094;2023-02-03T15:46:17;10.33;;;4.10;;
18286;SDS011;9269;50.838;12.094;2023-02-03T15:48:51;11.30;;;4.63;;
18286;SDS011;9269;50.838;12.094;2023-02-03T15:51:27;6.83;;;2.93;;
18286;SDS011;9269;50.838;12.094;2023-02-03T15:54:00;7.17;;;2.57;;
18286;SDS011;9269;50.838;12.094;2023-02-03T15:56:34;10.70;;;3.00;;
18286;SDS011;9269;50.838;12.094;2023-02-03T15:59:16;7.00;;;2.30;;